createdAt,value
2023-01-20T00:01:29.830Z,0.49
2023-01-20T00:04:19.972Z,0.42
2023-01-20T00:07:08.487Z,0.34
2023-01-20T00:09:56.926Z,0.30
2023-01-20T00:12:45.390Z,0.13
2023-01-20T00:15:33.888Z,-0.87
2023-01-20T00:18:23.784Z,0.11
2023-01-20T00:21:14.169Z,0.12
2023-01-20T00:24:02.860Z,0.13
2023-01-20T00:26:51.428Z,0.10
2023-01-20T00:29:39.963Z,0.07
2023-01-20T00:32:28.445Z,0.02
2023-01-20T00:35:18.289Z,0.01
2023-01-20T00:38:06.670Z,0.06
2023-01-20T00:40:55.800Z,0.05
2023-01-20T00:43:44.469Z,0.09
2023-01-20T00:46:32.965Z,0.03
2023-01-20T00:49:21.653Z,-0.21
2023-01-20T00:52:11.435Z,0.02
2023-01-20T00:54:59.877Z,-0.01
2023-01-20T00:57:48.386Z,-0.04
2023-01-20T01:00:37.154Z,-0.07
2023-01-20T01:03:27.824Z,-0.09
2023-01-20T01:06:18.008Z,-0.06
2023-01-20T01:09:07.845Z,-0.11
2023-01-20T01:11:56.305Z,-0.02
2023-01-20T01:14:44.758Z,0.00
2023-01-20T01:17:33.286Z,0.00
2023-01-20T01:20:21.885Z,-0.09
2023-01-20T01:23:10.342Z,-0.13
2023-01-20T01:26:00.163Z,-0.17
2023-01-20T01:28:49.204Z,-0.24
2023-01-20T01:31:38.973Z,-0.29
2023-01-20T01:34:27.510Z,-0.35
2023-01-20T01:37:16.076Z,-0.38
2023-01-20T01:40:05.411Z,-0.37
2023-01-20T01:42:55.253Z,-0.41
2023-01-20T01:45:43.741Z,-0.42
2023-01-20T01:48:35.804Z,-0.50
2023-01-20T01:51:26.390Z,-0.46
2023-01-20T01:54:16.978Z,-0.47
2023-01-20T01:57:05.946Z,-0.45
2023-01-20T01:59:55.781Z,-0.41
2023-01-20T02:02:44.933Z,-0.46
2023-01-20T02:05:34.173Z,-0.44
2023-01-20T02:08:22.731Z,-0.45
2023-01-20T02:11:11.220Z,-0.49
2023-01-20T02:14:00.495Z,-0.51
2023-01-20T02:16:57.639Z,-0.57
2023-01-20T02:20:02.219Z,-0.63
2023-01-20T02:22:53.885Z,-0.67
2023-01-20T02:25:54.912Z,-0.80
2023-01-20T02:29:09.111Z,-0.90
2023-01-20T02:32:22.567Z,-0.95
2023-01-20T02:35:13.131Z,-0.82
2023-01-20T02:38:12.127Z,-0.75
2023-01-20T02:41:08.591Z,-0.69
2023-01-20T02:44:01.256Z,-0.61
2023-01-20T02:46:53.225Z,-0.61
2023-01-20T02:49:47.603Z,-0.58
2023-01-20T02:52:37.575Z,-0.73
2023-01-20T02:55:30.778Z,-0.62
2023-01-20T02:58:22.411Z,-0.59
2023-01-20T03:01:12.669Z,-0.65
2023-01-20T03:04:02.892Z,-0.62
2023-01-20T03:06:55.372Z,-0.62
2023-01-20T03:09:46.612Z,-0.88
2023-01-20T03:12:39.141Z,-0.60
2023-01-20T03:15:33.394Z,-0.48
2023-01-20T03:18:21.916Z,-0.55
2023-01-20T03:21:11.389Z,-0.55
2023-01-20T03:24:02.573Z,-0.53
2023-01-20T03:26:51.043Z,-0.54
2023-01-20T03:29:39.526Z,-0.61
2023-01-20T03:32:28.749Z,-0.28
2023-01-20T03:35:17.843Z,-0.46
2023-01-20T03:38:06.342Z,-0.49
2023-01-20T03:41:01.934Z,-0.56
2023-01-20T03:43:55.578Z,-0.48
2023-01-20T03:46:47.339Z,-0.44
2023-01-20T03:49:39.322Z,-0.29
2023-01-20T03:52:47.773Z,-0.21
2023-01-20T03:55:39.635Z,-0.37
2023-01-20T03:58:31.218Z,-0.32
2023-01-20T04:01:21.126Z,-0.39
2023-01-20T04:04:11.460Z,-0.50
2023-01-20T04:07:00.623Z,-0.49
2023-01-20T04:09:52.833Z,-0.50
2023-01-20T04:12:41.285Z,-0.48
2023-01-20T04:15:34.086Z,-0.56
2023-01-20T04:18:24.898Z,-0.52
2023-01-20T04:21:17.483Z,-0.50
2023-01-20T04:24:09.030Z,-0.52
2023-01-20T04:26:57.544Z,-0.50
2023-01-20T04:29:45.994Z,-0.52
2023-01-20T04:32:35.858Z,-0.54
2023-01-20T04:35:24.537Z,-0.56
2023-01-20T04:38:12.980Z,-0.70
2023-01-20T04:41:03.576Z,-0.65
2023-01-20T04:43:52.190Z,-0.71
2023-01-20T04:46:40.755Z,-0.72
2023-01-20T04:49:30.695Z,-0.74
2023-01-20T04:52:19.131Z,-0.76
2023-01-20T04:55:08.363Z,-0.83
2023-01-20T04:57:56.850Z,-0.72
2023-01-20T05:00:45.371Z,-0.73
2023-01-20T05:03:34.287Z,-0.83
2023-01-20T05:06:24.137Z,-0.82
2023-01-20T05:09:15.158Z,-0.81
2023-01-20T05:12:03.812Z,-0.83
2023-01-20T05:14:52.318Z,-0.92
2023-01-20T05:17:41.041Z,-0.98
2023-01-20T05:20:29.626Z,-1.06
2023-01-20T05:23:19.457Z,-1.11
2023-01-20T05:26:08.031Z,-1.12
2023-01-20T05:28:56.773Z,-1.16
2023-01-20T05:31:45.700Z,-1.22
2023-01-20T05:34:34.307Z,-1.38
2023-01-20T05:37:22.805Z,-1.31
2023-01-20T05:40:13.437Z,-1.38
2023-01-20T05:43:02.253Z,-1.50
2023-01-20T05:45:50.789Z,-1.53
2023-01-20T05:48:39.424Z,-1.36
2023-01-20T05:51:28.769Z,-1.39
2023-01-20T05:54:17.416Z,-1.45
2023-01-20T05:57:07.319Z,-1.35
2023-01-20T05:59:56.006Z,-1.40
2023-01-20T06:02:45.252Z,-1.40
2023-01-20T06:05:34.130Z,-1.52
2023-01-20T06:08:22.853Z,-1.40
2023-01-20T06:11:11.548Z,-1.48
2023-01-20T06:14:01.538Z,-1.44
2023-01-20T06:16:51.000Z,-1.52
2023-01-20T06:19:39.515Z,-1.54
2023-01-20T06:22:31.770Z,-1.77
2023-01-20T06:25:20.245Z,-1.43
2023-01-20T06:28:09.029Z,-1.49
2023-01-20T06:31:03.392Z,-1.44
2023-01-20T06:33:52.635Z,-1.45
2023-01-20T06:36:41.223Z,-1.50
2023-01-20T06:39:30.265Z,-1.49
2023-01-20T06:42:19.132Z,-1.46
2023-01-20T06:45:08.697Z,-1.55
2023-01-20T06:47:58.576Z,-1.42
2023-01-20T06:50:47.049Z,-1.58
2023-01-20T06:53:35.711Z,-1.56
2023-01-20T06:56:24.333Z,-1.65
2023-01-20T06:59:13.233Z,-1.46
2023-01-20T07:02:01.770Z,-1.67
2023-01-20T07:04:53.817Z,-1.71
2023-01-20T07:07:44.875Z,-1.53
2023-01-20T07:10:33.379Z,-1.57
2023-01-20T07:13:21.951Z,-1.66
2023-01-20T07:16:12.512Z,-1.71
2023-01-20T07:19:02.424Z,-1.72
2023-01-20T07:21:52.291Z,-1.62
2023-01-20T07:24:40.940Z,-1.67
2023-01-20T07:27:29.360Z,-1.62
2023-01-20T07:30:18.686Z,-1.57
2023-01-20T07:33:07.154Z,-1.57
2023-01-20T07:35:55.735Z,-1.65
2023-01-20T07:38:48.092Z,-1.53
2023-01-20T07:41:36.557Z,-1.64
2023-01-20T07:44:25.152Z,-1.53
2023-01-20T07:47:13.687Z,-1.59
2023-01-20T07:50:02.162Z,-1.55
2023-01-20T07:52:50.645Z,-1.68
2023-01-20T07:55:40.449Z,-1.33
2023-01-20T07:58:29.672Z,-0.98
2023-01-20T08:01:19.966Z,-0.62
2023-01-20T08:04:08.480Z,-0.23
2023-01-20T08:06:57.337Z,0.25
2023-01-20T08:09:45.842Z,0.49
2023-01-20T08:12:35.850Z,0.84
2023-01-20T08:15:24.464Z,1.00
2023-01-20T08:18:12.949Z,1.10
2023-01-20T08:21:06.334Z,0.88
2023-01-20T08:23:56.371Z,0.85
2023-01-20T08:26:45.074Z,1.17
2023-01-20T08:29:34.936Z,1.41
2023-01-20T08:32:23.486Z,1.54
2023-01-20T08:35:11.961Z,1.74
2023-01-20T08:38:00.619Z,1.80
2023-01-20T08:40:49.149Z,2.06
2023-01-20T08:43:39.165Z,2.05
2023-01-20T08:46:29.504Z,2.14
2023-01-20T08:49:18.448Z,2.11
2023-01-20T08:52:06.966Z,2.53
2023-01-20T08:54:55.448Z,2.63
2023-01-20T08:57:43.969Z,2.74
2023-01-20T09:00:32.456Z,2.87
2023-01-20T09:03:23.008Z,2.71
2023-01-20T09:06:12.147Z,2.77
2023-01-20T09:09:01.545Z,2.78
2023-01-20T09:11:54.743Z,2.52
2023-01-20T09:14:43.804Z,2.74
2023-01-20T09:17:32.631Z,2.86
2023-01-20T09:20:22.614Z,2.95
2023-01-20T09:23:11.185Z,3.22
2023-01-20T09:26:00.802Z,3.37
2023-01-20T09:28:49.317Z,3.31
2023-01-20T09:31:38.363Z,3.27
2023-01-20T09:34:29.480Z,3.24
2023-01-20T09:37:48.979Z,3.46
2023-01-20T09:40:59.927Z,3.71
2023-01-20T09:43:57.619Z,3.84
2023-01-20T09:47:14.977Z,4.20
2023-01-20T09:50:47.834Z,4.35
2023-01-20T09:53:46.846Z,4.31
2023-01-20T09:56:41.412Z,4.37
2023-01-20T09:59:37.171Z,4.07
2023-01-20T10:02:29.117Z,4.19
2023-01-20T10:05:21.723Z,4.21
2023-01-20T10:08:13.838Z,4.25
2023-01-20T10:11:06.731Z,4.26
2023-01-20T10:13:59.977Z,4.35
2023-01-20T10:16:51.990Z,4.53
2023-01-20T10:19:43.448Z,4.61
2023-01-20T10:22:34.538Z,4.47
2023-01-20T10:25:26.062Z,4.46
2023-01-20T10:28:22.391Z,4.51
2023-01-20T10:31:12.358Z,4.56
2023-01-20T10:34:12.027Z,4.67
2023-01-20T10:37:05.710Z,4.64
2023-01-20T10:39:56.456Z,4.51
2023-01-20T10:42:48.608Z,4.61
2023-01-20T10:45:48.061Z,4.70
2023-01-20T10:48:55.139Z,4.61
2023-01-20T10:51:47.440Z,4.63
2023-01-20T10:54:39.895Z,4.53
2023-01-20T10:57:28.553Z,4.70
2023-01-20T11:00:20.938Z,4.66
2023-01-20T11:03:15.330Z,4.54
2023-01-20T11:06:04.617Z,4.77
2023-01-20T11:08:53.671Z,4.72
2023-01-20T11:11:42.629Z,4.82
2023-01-20T11:14:32.002Z,4.04
2023-01-20T11:17:21.318Z,4.88
2023-01-20T11:20:20.644Z,4.75
2023-01-20T11:23:20.679Z,5.15
2023-01-20T11:26:17.044Z,5.10
2023-01-20T11:29:27.560Z,5.01
2023-01-20T11:32:26.198Z,5.09
2023-01-20T11:35:24.560Z,5.04
2023-01-20T11:38:24.429Z,5.05
2023-01-20T11:41:19.450Z,4.72
2023-01-20T11:44:08.009Z,4.81
2023-01-20T11:46:58.255Z,4.77
2023-01-20T11:49:47.018Z,4.82
2023-01-20T11:52:38.176Z,4.68
2023-01-20T11:55:27.180Z,4.61
2023-01-20T11:58:19.253Z,4.55
2023-01-20T12:01:09.080Z,4.43
2023-01-20T12:04:18.794Z,4.35
2023-01-20T12:07:08.917Z,4.19
2023-01-20T12:10:04.531Z,4.38
2023-01-20T12:12:55.665Z,4.27
2023-01-20T12:15:52.803Z,4.43
2023-01-20T12:19:01.150Z,4.46
2023-01-20T12:21:53.429Z,4.56
2023-01-20T12:25:10.195Z,4.44
2023-01-20T12:28:04.953Z,4.78
2023-01-20T12:30:57.228Z,4.86
2023-01-20T12:33:46.519Z,4.90
2023-01-20T12:37:01.608Z,4.73
2023-01-20T12:40:00.779Z,4.75
2023-01-20T12:43:28.392Z,4.76
2023-01-20T12:46:33.227Z,4.63
2023-01-20T12:49:42.867Z,4.65
2023-01-20T12:52:47.583Z,4.65
2023-01-20T12:55:45.451Z,4.44
2023-01-20T12:58:47.293Z,4.38
2023-01-20T13:01:44.014Z,4.32
2023-01-20T13:04:50.999Z,4.33
2023-01-20T13:07:50.901Z,4.35
2023-01-20T13:10:51.239Z,4.39
2023-01-20T13:13:56.868Z,4.42
2023-01-20T13:16:51.496Z,4.36
2023-01-20T13:19:42.343Z,4.19
2023-01-20T13:22:31.418Z,4.20
2023-01-20T13:25:20.838Z,4.19
2023-01-20T13:28:16.559Z,4.25
2023-01-20T13:31:34.367Z,4.27
2023-01-20T13:34:36.187Z,4.27
2023-01-20T13:37:30.294Z,4.22
2023-01-20T13:40:50.109Z,4.19
2023-01-20T13:43:49.973Z,4.25
2023-01-20T13:46:49.968Z,4.23
2023-01-20T13:49:50.089Z,4.21
2023-01-20T13:53:16.663Z,4.23
2023-01-20T13:56:05.414Z,4.29
2023-01-20T13:58:54.069Z,4.15
2023-01-20T14:01:42.631Z,4.15
2023-01-20T14:04:34.054Z,4.23
2023-01-20T14:07:26.396Z,4.40
2023-01-20T14:10:15.341Z,4.39
2023-01-20T14:13:10.200Z,4.45
2023-01-20T14:15:58.800Z,4.52
2023-01-20T14:18:47.605Z,4.51
2023-01-20T14:21:42.962Z,4.39
2023-01-20T14:24:33.281Z,4.18
2023-01-20T14:27:24.596Z,4.28
2023-01-20T14:30:19.853Z,4.23
2023-01-20T14:33:09.572Z,4.18
2023-01-20T14:35:58.090Z,4.26
2023-01-20T14:38:57.246Z,4.04
2023-01-20T14:41:50.328Z,4.19
2023-01-20T14:44:39.124Z,3.84
2023-01-20T14:47:28.445Z,4.10
2023-01-20T14:50:18.942Z,4.03
2023-01-20T14:53:07.660Z,4.04
2023-01-20T14:56:01.333Z,4.05
2023-01-20T14:58:53.206Z,4.07
2023-01-20T15:01:41.843Z,4.06
2023-01-20T15:04:36.528Z,4.06
2023-01-20T15:07:25.850Z,4.01
2023-01-20T15:10:17.111Z,3.99
2023-01-20T15:13:22.951Z,3.93
2023-01-20T15:16:18.342Z,3.95
2023-01-20T15:19:18.576Z,3.90
2023-01-20T15:22:22.311Z,3.88
2023-01-20T15:25:14.196Z,3.61
2023-01-20T15:28:02.664Z,3.87
2023-01-20T15:30:53.164Z,3.86
2023-01-20T15:33:42.663Z,3.79
2023-01-20T15:36:33.456Z,3.78
2023-01-20T15:39:24.653Z,3.77
2023-01-20T15:42:13.185Z,3.78
2023-01-20T15:45:01.691Z,3.76
2023-01-20T15:47:51.503Z,3.74
2023-01-20T15:50:41.896Z,3.70
2023-01-20T15:53:30.353Z,3.65
2023-01-20T15:56:21.557Z,3.50
2023-01-20T15:59:13.283Z,3.27
2023-01-20T16:02:02.056Z,3.30
2023-01-20T16:04:52.302Z,3.38
2023-01-20T16:07:44.109Z,3.33
2023-01-20T16:10:32.901Z,3.23
2023-01-20T16:13:21.557Z,3.14
2023-01-20T16:16:12.666Z,3.11
2023-01-20T16:19:01.182Z,3.06
2023-01-20T16:21:51.164Z,2.40
2023-01-20T16:24:39.678Z,2.88
2023-01-20T16:27:28.275Z,2.83
2023-01-20T16:30:19.521Z,2.78
2023-01-20T16:33:16.634Z,2.71
2023-01-20T16:36:07.405Z,2.62
2023-01-20T16:38:57.354Z,2.52
2023-01-20T16:41:48.804Z,2.47
2023-01-20T16:44:37.330Z,2.41
2023-01-20T16:47:25.768Z,2.34
2023-01-20T16:50:14.666Z,2.29
2023-01-20T16:53:03.498Z,2.15
2023-01-20T16:55:53.290Z,2.17
2023-01-20T16:58:41.868Z,2.07
2023-01-20T17:01:31.283Z,2.09
2023-01-20T17:04:19.815Z,2.02
2023-01-20T17:07:08.327Z,2.01
2023-01-20T17:09:57.476Z,2.02
2023-01-20T17:12:48.968Z,1.96
2023-01-20T17:15:40.421Z,2.05
2023-01-20T17:18:28.893Z,2.04
2023-01-20T17:21:17.608Z,2.05
2023-01-20T17:24:07.307Z,1.86
2023-01-20T17:26:55.765Z,2.05
2023-01-20T17:29:45.573Z,1.99
2023-01-20T17:32:34.110Z,1.82
2023-01-20T17:35:22.665Z,2.04
2023-01-20T17:38:11.294Z,2.08
2023-01-20T17:41:01.061Z,2.17
2023-01-20T17:43:49.600Z,2.15
2023-01-20T17:46:39.480Z,2.12
2023-01-20T17:49:28.091Z,2.29
2023-01-20T17:52:20.009Z,2.21
2023-01-20T17:55:09.191Z,0.86
2023-01-20T17:57:58.458Z,1.78
2023-01-20T18:00:46.947Z,2.01
2023-01-20T18:03:39.055Z,2.01
2023-01-20T18:06:29.312Z,2.05
2023-01-20T18:09:17.828Z,2.07
2023-01-20T18:12:06.896Z,2.10
2023-01-20T18:14:55.431Z,2.11
2023-01-20T18:17:44.551Z,2.18
2023-01-20T18:20:34.448Z,1.97
2023-01-20T18:23:22.929Z,2.20
2023-01-20T18:26:13.713Z,2.05
2023-01-20T18:29:05.098Z,2.19
2023-01-20T18:31:53.692Z,2.30
2023-01-20T18:34:42.386Z,2.13
2023-01-20T18:37:33.162Z,2.21
2023-01-20T18:40:21.800Z,2.26
2023-01-20T18:43:10.323Z,2.14
2023-01-20T18:45:58.830Z,2.26
2023-01-20T18:48:48.959Z,2.36
2023-01-20T18:51:37.490Z,2.41
2023-01-20T18:54:30.165Z,2.46
2023-01-20T18:57:18.705Z,2.40
2023-01-20T19:00:08.676Z,2.45
2023-01-20T19:02:58.382Z,2.41
2023-01-20T19:05:48.158Z,2.41
2023-01-20T19:08:36.678Z,2.41
2023-01-20T19:11:30.469Z,2.40
2023-01-20T19:14:19.023Z,2.43
2023-01-20T19:17:08.368Z,2.40
2023-01-20T19:19:57.089Z,2.27
2023-01-20T19:22:46.201Z,2.39
2023-01-20T19:25:34.793Z,2.29
2023-01-20T19:28:24.624Z,2.39
2023-01-20T19:31:14.619Z,2.42
2023-01-20T19:34:03.603Z,2.38
2023-01-20T19:36:52.207Z,2.36
2023-01-20T19:39:40.812Z,2.45
2023-01-20T19:42:30.726Z,2.41
2023-01-20T19:45:20.808Z,2.27
2023-01-20T19:48:09.300Z,2.47
2023-01-20T19:50:57.887Z,2.46
2023-01-20T19:53:47.283Z,2.43
2023-01-20T19:56:36.191Z,2.30
2023-01-20T19:59:24.686Z,2.24
2023-01-20T20:02:14.533Z,2.27
2023-01-20T20:05:03.007Z,2.35
2023-01-20T20:07:51.582Z,2.34
2023-01-20T20:10:42.715Z,2.31
2023-01-20T20:13:31.244Z,2.32
2023-01-20T20:16:19.891Z,2.36
2023-01-20T20:19:12.172Z,2.56
2023-01-20T20:22:00.720Z,2.38
2023-01-20T20:24:49.254Z,2.38
2023-01-20T20:27:38.168Z,2.33
2023-01-20T20:30:26.743Z,2.33
2023-01-20T20:33:15.335Z,2.41
2023-01-20T20:36:08.388Z,2.38
2023-01-20T20:38:58.358Z,2.36
2023-01-20T20:41:47.516Z,2.34
2023-01-20T20:44:36.159Z,2.34
2023-01-20T20:47:27.142Z,2.34
2023-01-20T20:50:16.448Z,2.38
2023-01-20T20:53:06.544Z,2.38
2023-01-20T20:55:58.973Z,2.40
2023-01-20T20:59:00.329Z,2.23
2023-01-20T21:01:49.868Z,2.38
2023-01-20T21:04:38.383Z,2.37
2023-01-20T21:07:26.949Z,2.37
2023-01-20T21:10:17.594Z,2.33
2023-01-20T21:13:08.159Z,2.33
2023-01-20T21:15:59.437Z,2.24
2023-01-20T21:18:48.197Z,2.33
2023-01-20T21:21:36.729Z,1.69
2023-01-20T21:24:28.917Z,2.33
2023-01-20T21:27:18.850Z,2.30
2023-01-20T21:30:08.989Z,2.36
2023-01-20T21:32:57.547Z,2.41
2023-01-20T21:35:46.680Z,2.43
2023-01-20T21:38:35.393Z,1.78
2023-01-20T21:41:23.960Z,2.37
2023-01-20T21:44:30.071Z,2.35
2023-01-20T21:47:18.587Z,2.38
2023-01-20T21:50:25.419Z,2.39
2023-01-20T21:53:14.817Z,2.37
2023-01-20T21:56:03.259Z,2.14
2023-01-20T21:58:52.609Z,2.38
2023-01-20T22:01:43.360Z,2.35
2023-01-20T22:04:33.637Z,2.36
2023-01-20T22:07:22.788Z,2.34
2023-01-20T22:10:12.847Z,2.25
2023-01-20T22:13:01.318Z,2.29
2023-01-20T22:15:50.112Z,2.31
2023-01-20T22:18:39.979Z,2.22
2023-01-20T22:21:29.542Z,2.39
2023-01-20T22:24:18.505Z,2.43
2023-01-20T22:27:07.174Z,2.50
2023-01-20T22:29:55.672Z,2.47
2023-01-20T22:32:44.121Z,2.41
2023-01-20T22:35:33.899Z,2.44
2023-01-20T22:38:22.368Z,2.43
2023-01-20T22:41:11.408Z,2.43
2023-01-20T22:44:00.067Z,2.43
2023-01-20T22:46:48.574Z,2.42
2023-01-20T22:49:37.062Z,2.38
2023-01-20T22:52:27.111Z,2.40
2023-01-20T22:55:15.769Z,2.17
2023-01-20T22:58:04.246Z,2.35
2023-01-20T23:00:52.696Z,2.29
2023-01-20T23:03:41.823Z,2.27
2023-01-20T23:06:32.438Z,2.28
2023-01-20T23:09:22.411Z,2.28
2023-01-20T23:12:10.926Z,2.30
2023-01-20T23:15:02.811Z,2.29
2023-01-20T23:17:51.280Z,2.23
2023-01-20T23:20:40.149Z,2.26
2023-01-20T23:23:29.190Z,2.20
2023-01-20T23:26:19.447Z,2.18
2023-01-20T23:29:07.872Z,2.18
2023-01-20T23:31:56.432Z,2.15
2023-01-20T23:34:44.974Z,2.17
2023-01-20T23:37:33.429Z,2.13
2023-01-20T23:40:21.999Z,1.94
2023-01-20T23:43:11.864Z,2.11
2023-01-20T23:46:01.615Z,2.15
2023-01-20T23:48:50.080Z,2.23
2023-01-20T23:51:38.515Z,2.28
2023-01-20T23:54:27.065Z,2.23
2023-01-20T23:57:15.519Z,2.06
